Главная страница
METAR-TAF:

METAR-TAF

Аэропорты :

Фёрде, Норвегия

широта: 61-27N, долгота: 005-52E, высота над уровнем моря: 150 м

Текущие метеонаблюдения

Эта сводка был подготовлена 22 минут назад, в 07:50 UTC
Ветер 3 Узел от северо-восточный
Температура 1°C
Влажность 80%
Давление 1008 hPa
Видимость 10 км и более
Нет облачности ниже 1500 м, и нет кучево-дождевой облачности

METAR: ENBL 170750Z 04003KT CAVOK 01/M02 Q1008

Время: 09:12 (08:12 UTC)


TAF: отсутствует

Метеонаблюдения и прогнозы для более 4000 аэропортов (сводки METAR и TAF).

Имеющиеся станции представлены на карте желтыми и красными точками.

Чтобы увидеть название станции, наведите на нее мышь.

Затем щелкните, чтобы увидеть метеонаблюдения и метеопрогнозы.

Управление картой: чтобы увеличить масштаб, щелкните зеленые кнопки с черным крестиком; чтобы уменьшить масштаб, щелкните зеленую кнопку с тире; для просмотра соседних карт щелкайте зеленые стрелки.


METAR-TAF: